MMCV

General Pedro Jose Mendez International Airport

Ciudad Victoria, Mexico
METAR MMCV 172245Z 15012KT 10SM OVC120 26/13 A2997 RMK 8/01/
Observed Flight Rules
Nov-17 @ 22:45 UTC (53 minutes ago) Visual Flight Rules
Wind Visibility Clouds
150° at 12 knots 10 miles
  • Overcast at 12,000' AGL
Temperatures Readings
Current 26°C / 79°F
Dewpoint 13°C / 55°F
Humidity 45%
Altimeter 29.97" Hg
Pressure 1015 hPa
Elevation 238
METAR MMCV 172245Z 15012KT 10SM OVC120 26/13 A2997 RMK 8/01/
Observed Flight Rules
Nov-17 @ 22:45 UTC
(53 minutes ago)
VFR
Wind Visibility
150° at 12 knots 10 miles
Clouds
  • Overcast at 12,000' AGL
Temperature Dewpoint
26°C / 79°F 13°C / 55°F
Humidity Altimeter Pressure
45% 29.97" Hg 1015 hPa